sensor_id;sensor_type;location;lat;lon;timestamp;pressure;altitude;pressure_sealevel;temperature;humidity
10310;BME280;5200;43.236;27.986;2023-06-19T00:01:23;99595.34;;;19.69;100.00
10310;BME280;5200;43.236;27.986;2023-06-19T00:03:50;99602.91;;;19.72;100.00
10310;BME280;5200;43.236;27.986;2023-06-19T00:06:16;99588.53;;;19.60;100.00
10310;BME280;5200;43.236;27.986;2023-06-19T00:08:45;99605.59;;;19.72;100.00
10310;BME280;5200;43.236;27.986;2023-06-19T00:11:11;99599.84;;;19.69;100.00
10310;BME280;5200;43.236;27.986;2023-06-19T00:13:38;99605.16;;;19.75;100.00
10310;BME280;5200;43.236;27.986;2023-06-19T00:16:05;99608.06;;;19.74;100.00
10310;BME280;5200;43.236;27.986;2023-06-19T00:18:32;99610.50;;;19.75;100.00
10310;BME280;5200;43.236;27.986;2023-06-19T00:21:05;99582.16;;;19.61;100.00
10310;BME280;5200;43.236;27.986;2023-06-19T00:23:32;99617.50;;;19.83;100.00
10310;BME280;5200;43.236;27.986;2023-06-19T00:26:02;99623.22;;;19.87;100.00
10310;BME280;5200;43.236;27.986;2023-06-19T00:28:29;99595.09;;;19.77;100.00
10310;BME280;5200;43.236;27.986;2023-06-19T00:30:56;99594.47;;;19.82;100.00
10310;BME280;5200;43.236;27.986;2023-06-19T00:33:23;99614.59;;;19.98;100.00
10310;BME280;5200;43.236;27.986;2023-06-19T00:35:50;99613.97;;;19.89;100.00
10310;BME280;5200;43.236;27.986;2023-06-19T00:38:17;99609.06;;;19.93;100.00
10310;BME280;5200;43.236;27.986;2023-06-19T00:40:44;99599.00;;;19.81;100.00
10310;BME280;5200;43.236;27.986;2023-06-19T00:43:12;99606.41;;;19.86;100.00
10310;BME280;5200;43.236;27.986;2023-06-19T00:45:39;99622.84;;;19.90;100.00
10310;BME280;5200;43.236;27.986;2023-06-19T00:48:06;99590.63;;;19.71;100.00
10310;BME280;5200;43.236;27.986;2023-06-19T00:50:33;99600.66;;;19.76;100.00
10310;BME280;5200;43.236;27.986;2023-06-19T00:53:03;99623.66;;;19.83;100.00
10310;BME280;5200;43.236;27.986;2023-06-19T00:55:30;99633.50;;;19.83;100.00
10310;BME280;5200;43.236;27.986;2023-06-19T00:57:59;99610.06;;;19.65;100.00
10310;BME280;5200;43.236;27.986;2023-06-19T01:00:27;99604.75;;;19.58;100.00
10310;BME280;5200;43.236;27.986;2023-06-19T01:02:54;99599.41;;;19.58;100.00
10310;BME280;5200;43.236;27.986;2023-06-19T01:05:21;99620.56;;;19.67;100.00
10310;BME280;5200;43.236;27.986;2023-06-19T01:07:54;99616.22;;;19.59;100.00
10310;BME280;5200;43.236;27.986;2023-06-19T01:10:26;99626.50;;;19.55;100.00
10310;BME280;5200;43.236;27.986;2023-06-19T01:12:56;99625.06;;;19.59;100.00
10310;BME280;5200;43.236;27.986;2023-06-19T01:15:25;99609.25;;;19.44;100.00
10310;BME280;5200;43.236;27.986;2023-06-19T01:17:54;99611.72;;;19.39;100.00
10310;BME280;5200;43.236;27.986;2023-06-19T01:20:21;99623.44;;;19.38;100.00
10310;BME280;5200;43.236;27.986;2023-06-19T01:22:50;99613.78;;;19.37;100.00
10310;BME280;5200;43.236;27.986;2023-06-19T01:25:16;99621.16;;;19.42;100.00
10310;BME280;5200;43.236;27.986;2023-06-19T01:27:43;99627.72;;;19.46;100.00
10310;BME280;5200;43.236;27.986;2023-06-19T01:30:11;99615.44;;;19.38;100.00
10310;BME280;5200;43.236;27.986;2023-06-19T01:32:46;99631.81;;;19.42;100.00
10310;BME280;5200;43.236;27.986;2023-06-19T01:35:15;99631.81;;;19.42;100.00
10310;BME280;5200;43.236;27.986;2023-06-19T01:37:44;99634.72;;;19.40;100.00
10310;BME280;5200;43.236;27.986;2023-06-19T01:40:14;99622.63;;;19.38;100.00
10310;BME280;5200;43.236;27.986;2023-06-19T01:42:42;99608.44;;;19.31;100.00
10310;BME280;5200;43.236;27.986;2023-06-19T01:45:10;99626.50;;;19.42;100.00
10310;BME280;5200;43.236;27.986;2023-06-19T01:47:37;99609.47;;;19.30;100.00
10310;BME280;5200;43.236;27.986;2023-06-19T01:50:05;99602.69;;;19.27;100.00
10310;BME280;5200;43.236;27.986;2023-06-19T01:52:32;99619.94;;;19.38;100.00
10310;BME280;5200;43.236;27.986;2023-06-19T01:54:59;99611.31;;;19.29;100.00
10310;BME280;5200;43.236;27.986;2023-06-19T01:57:27;99621.16;;;19.42;100.00
10310;BME280;5200;43.236;27.986;2023-06-19T01:59:54;99611.09;;;19.24;100.00
10310;BME280;5200;43.236;27.986;2023-06-19T02:02:21;99607.22;;;19.33;100.00
10310;BME280;5200;43.236;27.986;2023-06-19T02:04:48;99624.22;;;19.32;100.00
10310;BME280;5200;43.236;27.986;2023-06-19T02:07:15;99612.75;;;19.25;100.00
10310;BME280;5200;43.236;27.986;2023-06-19T02:09:41;99619.94;;;19.31;100.00
10310;BME280;5200;43.236;27.986;2023-06-19T02:12:09;99604.53;;;19.20;100.00
10310;BME280;5200;43.236;27.986;2023-06-19T02:14:37;99644.16;;;19.36;100.00
10310;BME280;5200;43.236;27.986;2023-06-19T02:17:04;99605.53;;;19.19;100.00
10310;BME280;5200;43.236;27.986;2023-06-19T02:19:31;99631.00;;;19.35;100.00
10310;BME280;5200;43.236;27.986;2023-06-19T02:21:57;99646.59;;;19.31;100.00
10310;BME280;5200;43.236;27.986;2023-06-19T02:24:24;99620.72;;;19.12;100.00
10310;BME280;5200;43.236;27.986;2023-06-19T02:26:51;99641.69;;;19.21;100.00
10310;BME280;5200;43.236;27.986;2023-06-19T02:29:18;99619.69;;;19.06;100.00
10310;BME280;5200;43.236;27.986;2023-06-19T02:31:46;99653.56;;;19.26;100.00
10310;BME280;5200;43.236;27.986;2023-06-19T02:34:13;99633.03;;;19.13;100.00
10310;BME280;5200;43.236;27.986;2023-06-19T02:36:40;99654.16;;;19.21;100.00
10310;BME280;5200;43.236;27.986;2023-06-19T02:39:08;99650.28;;;19.17;100.00
10310;BME280;5200;43.236;27.986;2023-06-19T02:41:35;99651.50;;;19.14;100.00
10310;BME280;5200;43.236;27.986;2023-06-19T02:44:03;99648.63;;;19.16;100.00
10310;BME280;5200;43.236;27.986;2023-06-19T02:46:30;99640.19;;;19.06;100.00
10310;BME280;5200;43.236;27.986;2023-06-19T02:48:58;99651.75;;;19.26;100.00
10310;BME280;5200;43.236;27.986;2023-06-19T02:51:26;99665.06;;;19.26;100.00
10310;BME280;5200;43.236;27.986;2023-06-19T02:53:53;99653.94;;;19.16;100.00
10310;BME280;5200;43.236;27.986;2023-06-19T02:56:19;99629.75;;;19.11;100.00
10310;BME280;5200;43.236;27.986;2023-06-19T02:58:46;99631.16;;;19.07;100.00
10310;BME280;5200;43.236;27.986;2023-06-19T03:01:13;99628.50;;;19.07;100.00
10310;BME280;5200;43.236;27.986;2023-06-19T03:03:40;99656.81;;;19.21;100.00
10310;BME280;5200;43.236;27.986;2023-06-19T03:06:08;99674.91;;;19.26;100.00
10310;BME280;5200;43.236;27.986;2023-06-19T03:08:35;99648.59;;;19.09;100.00
10310;BME280;5200;43.236;27.986;2023-06-19T03:11:02;99670.19;;;19.28;100.00
10310;BME280;5200;43.236;27.986;2023-06-19T03:13:33;99658.03;;;19.12;100.00
10310;BME280;5200;43.236;27.986;2023-06-19T03:16:00;99675.75;;;19.26;100.00
10310;BME280;5200;43.236;27.986;2023-06-19T03:18:27;99674.66;;;19.14;100.00
10310;BME280;5200;43.236;27.986;2023-06-19T03:20:53;99685.56;;;19.26;100.00
10310;BME280;5200;43.236;27.986;2023-06-19T03:23:22;99690.09;;;19.25;100.00
10310;BME280;5200;43.236;27.986;2023-06-19T03:25:48;99679.81;;;19.22;100.00
10310;BME280;5200;43.236;27.986;2023-06-19T03:28:16;99682.28;;;19.23;100.00
10310;BME280;5200;43.236;27.986;2023-06-19T03:30:43;99693.19;;;19.29;100.00
10310;BME280;5200;43.236;27.986;2023-06-19T03:33:10;99666.28;;;19.17;100.00
10310;BME280;5200;43.236;27.986;2023-06-19T03:35:37;99696.25;;;19.32;100.00
10310;BME280;5200;43.236;27.986;2023-06-19T03:38:04;99659.28;;;19.16;100.00
10310;BME280;5200;43.236;27.986;2023-06-19T03:40:32;99686.81;;;19.36;100.00
10310;BME280;5200;43.236;27.986;2023-06-19T03:42:59;99694.63;;;19.38;100.00
10310;BME280;5200;43.236;27.986;2023-06-19T03:45:26;99684.38;;;19.41;100.00
10310;BME280;5200;43.236;27.986;2023-06-19T03:47:53;99697.91;;;19.47;100.00
10310;BME280;5200;43.236;27.986;2023-06-19T03:50:19;99703.88;;;19.49;100.00
10310;BME280;5200;43.236;27.986;2023-06-19T03:52:46;99687.66;;;19.50;100.00
10310;BME280;5200;43.236;27.986;2023-06-19T03:55:13;99689.50;;;19.56;100.00
10310;BME280;5200;43.236;27.986;2023-06-19T03:57:41;99669.19;;;19.55;100.00
10310;BME280;5200;43.236;27.986;2023-06-19T04:00:09;99682.31;;;19.63;100.00
10310;BME280;5200;43.236;27.986;2023-06-19T04:02:38;99697.16;;;19.86;100.00
10310;BME280;5200;43.236;27.986;2023-06-19T04:05:05;99677.66;;;19.79;100.00
10310;BME280;5200;43.236;27.986;2023-06-19T04:07:32;99703.13;;;20.01;100.00
10310;BME280;5200;43.236;27.986;2023-06-19T04:09:59;99676.22;;;19.90;100.00
10310;BME280;5200;43.236;27.986;2023-06-19T04:12:26;99700.03;;;20.11;100.00
10310;BME280;5200;43.236;27.986;2023-06-19T04:14:54;99718.06;;;20.22;100.00
10310;BME280;5200;43.236;27.986;2023-06-19T04:17:21;99708.63;;;20.26;100.00
10310;BME280;5200;43.236;27.986;2023-06-19T04:19:48;99690.16;;;20.05;100.00
10310;BME280;5200;43.236;27.986;2023-06-19T04:22:14;99717.69;;;20.19;100.00
10310;BME280;5200;43.236;27.986;2023-06-19T04:24:41;99688.53;;;19.97;100.00
10310;BME280;5200;43.236;27.986;2023-06-19T04:27:08;99709.47;;;20.07;100.00
10310;BME280;5200;43.236;27.986;2023-06-19T04:29:35;99685.84;;;19.84;100.00
10310;BME280;5200;43.236;27.986;2023-06-19T04:32:04;99673.75;;;19.75;100.00
10310;BME280;5200;43.236;27.986;2023-06-19T04:34:36;99702.31;;;19.88;100.00
10310;BME280;5200;43.236;27.986;2023-06-19T04:37:04;99745.00;;;19.88;100.00
10310;BME280;5200;43.236;27.986;2023-06-19T04:39:31;99720.16;;;19.80;100.00
10310;BME280;5200;43.236;27.986;2023-06-19T04:41:58;99716.47;;;19.81;100.00
10310;BME280;5200;43.236;27.986;2023-06-19T04:44:25;99719.31;;;19.80;100.00
10310;BME280;5200;43.236;27.986;2023-06-19T04:46:52;99728.56;;;19.77;100.00
10310;BME280;5200;43.236;27.986;2023-06-19T04:49:27;99716.44;;;19.75;100.00
10310;BME280;5200;43.236;27.986;2023-06-19T04:51:55;99725.44;;;19.67;100.00
10310;BME280;5200;43.236;27.986;2023-06-19T04:54:22;99711.91;;;19.62;100.00
10310;BME280;5200;43.236;27.986;2023-06-19T04:56:49;99731.22;;;19.77;100.00
10310;BME280;5200;43.236;27.986;2023-06-19T04:59:16;99697.53;;;19.63;100.00
10310;BME280;5200;43.236;27.986;2023-06-19T05:01:43;99722.41;;;19.77;100.00
10310;BME280;5200;43.236;27.986;2023-06-19T05:04:10;99696.28;;;19.65;100.00
10310;BME280;5200;43.236;27.986;2023-06-19T05:06:39;99699.19;;;19.64;100.00
10310;BME280;5200;43.236;27.986;2023-06-19T05:09:06;99737.00;;;19.81;100.00
10310;BME280;5200;43.236;27.986;2023-06-19T05:11:32;99711.47;;;19.65;100.00
10310;BME280;5200;43.236;27.986;2023-06-19T05:13:59;99710.25;;;19.68;100.00
10310;BME280;5200;43.236;27.986;2023-06-19T05:16:26;99742.13;;;19.82;100.00
10310;BME280;5200;43.236;27.986;2023-06-19T05:18:53;99727.75;;;19.83;100.00
10310;BME280;5200;43.236;27.986;2023-06-19T05:21:20;99707.44;;;19.82;100.00
10310;BME280;5200;43.236;27.986;2023-06-19T05:23:48;99715.66;;;19.88;100.00
10310;BME280;5200;43.236;27.986;2023-06-19T05:26:18;99724.06;;;20.04;100.00
10310;BME280;5200;43.236;27.986;2023-06-19T05:28:45;99739.03;;;20.19;100.00
10310;BME280;5200;43.236;27.986;2023-06-19T05:31:12;99737.81;;;20.28;100.00
10310;BME280;5200;43.236;27.986;2023-06-19T05:33:39;99738.19;;;20.45;100.00
10310;BME280;5200;43.236;27.986;2023-06-19T05:36:06;99755.41;;;20.69;100.00
10310;BME280;5200;43.236;27.986;2023-06-19T05:38:33;99772.50;;;20.75;100.00
10310;BME280;5200;43.236;27.986;2023-06-19T05:41:01;99775.09;;;20.88;100.00
10310;BME280;5200;43.236;27.986;2023-06-19T05:43:28;99750.03;;;20.82;100.00
10310;BME280;5200;43.236;27.986;2023-06-19T05:45:56;99778.09;;;21.11;100.00
10310;BME280;5200;43.236;27.986;2023-06-19T05:48:24;99788.09;;;21.36;100.00
10310;BME280;5200;43.236;27.986;2023-06-19T05:50:51;99784.38;;;21.44;100.00
10310;BME280;5200;43.236;27.986;2023-06-19T05:53:18;99786.38;;;21.55;100.00
10310;BME280;5200;43.236;27.986;2023-06-19T05:55:45;99773.03;;;21.48;100.00
10310;BME280;5200;43.236;27.986;2023-06-19T05:58:20;99776.56;;;21.42;100.00
10310;BME280;5200;43.236;27.986;2023-06-19T06:00:49;99791.91;;;21.60;100.00
10310;BME280;5200;43.236;27.986;2023-06-19T06:03:16;99773.97;;;21.61;100.00
10310;BME280;5200;43.236;27.986;2023-06-19T06:05:42;99801.16;;;21.64;100.00
10310;BME280;5200;43.236;27.986;2023-06-19T06:08:14;99774.50;;;21.44;100.00
10310;BME280;5200;43.236;27.986;2023-06-19T06:10:41;99802.38;;;21.68;100.00
10310;BME280;5200;43.236;27.986;2023-06-19T06:13:07;99804.03;;;21.63;100.00
10310;BME280;5200;43.236;27.986;2023-06-19T06:15:36;99790.03;;;21.61;100.00
10310;BME280;5200;43.236;27.986;2023-06-19T06:18:02;99781.50;;;21.45;100.00
10310;BME280;5200;43.236;27.986;2023-06-19T06:20:29;99770.66;;;21.65;100.00
10310;BME280;5200;43.236;27.986;2023-06-19T06:22:56;99782.00;;;21.61;100.00
10310;BME280;5200;43.236;27.986;2023-06-19T06:25:23;99757.00;;;21.80;100.00
10310;BME280;5200;43.236;27.986;2023-06-19T06:27:50;99731.91;;;22.00;98.14
10310;BME280;5200;43.236;27.986;2023-06-19T06:30:17;99724.41;;;22.08;95.99
10310;BME280;5200;43.236;27.986;2023-06-19T06:32:45;99764.91;;;22.25;96.74
10310;BME280;5200;43.236;27.986;2023-06-19T06:35:13;99735.19;;;22.27;96.42
10310;BME280;5200;43.236;27.986;2023-06-19T06:37:39;99729.16;;;22.31;95.67
10310;BME280;5200;43.236;27.986;2023-06-19T06:40:07;99731.84;;;22.31;95.21
10310;BME280;5200;43.236;27.986;2023-06-19T06:42:36;99730.06;;;22.25;95.45
10310;BME280;5200;43.236;27.986;2023-06-19T06:45:05;99738.13;;;22.44;94.95
10310;BME280;5200;43.236;27.986;2023-06-19T06:47:32;99728.75;;;22.34;93.96
10310;BME280;5200;43.236;27.986;2023-06-19T06:50:00;99730.66;;;22.46;94.94
10310;BME280;5200;43.236;27.986;2023-06-19T06:52:27;99760.63;;;22.61;94.58
10310;BME280;5200;43.236;27.986;2023-06-19T06:54:55;99748.56;;;22.52;95.29
10310;BME280;5200;43.236;27.986;2023-06-19T06:57:22;99753.41;;;22.62;94.05
10310;BME280;5200;43.236;27.986;2023-06-19T06:59:49;99760.31;;;22.69;92.56
10310;BME280;5200;43.236;27.986;2023-06-19T07:02:22;99752.72;;;22.85;91.74
10310;BME280;5200;43.236;27.986;2023-06-19T07:04:49;99719.34;;;22.80;92.14
10310;BME280;5200;43.236;27.986;2023-06-19T07:07:18;99751.69;;;23.04;89.67
10310;BME280;5200;43.236;27.986;2023-06-19T07:09:44;99722.78;;;23.06;89.79
10310;BME280;5200;43.236;27.986;2023-06-19T07:12:11;99737.06;;;23.18;88.95
10310;BME280;5200;43.236;27.986;2023-06-19T07:14:38;99761.09;;;23.43;86.15
10310;BME280;5200;43.236;27.986;2023-06-19T07:17:05;99737.28;;;23.35;82.00
10310;BME280;5200;43.236;27.986;2023-06-19T07:19:32;99765.19;;;23.46;80.68
10310;BME280;5200;43.236;27.986;2023-06-19T07:21:59;99781.88;;;23.48;81.21
10310;BME280;5200;43.236;27.986;2023-06-19T07:24:28;99755.41;;;23.52;80.54
10310;BME280;5200;43.236;27.986;2023-06-19T07:26:55;99734.34;;;23.37;81.36
10310;BME280;5200;43.236;27.986;2023-06-19T07:29:23;99758.69;;;23.66;80.82
10310;BME280;5200;43.236;27.986;2023-06-19T07:31:50;99738.25;;;23.53;79.86
10310;BME280;5200;43.236;27.986;2023-06-19T07:34:17;99766.91;;;23.71;80.55
10310;BME280;5200;43.236;27.986;2023-06-19T07:36:44;99751.88;;;23.81;78.51
10310;BME280;5200;43.236;27.986;2023-06-19T07:39:11;99747.00;;;23.78;78.99
10310;BME280;5200;43.236;27.986;2023-06-19T07:41:39;99757.06;;;23.95;76.35
10310;BME280;5200;43.236;27.986;2023-06-19T07:44:06;99752.19;;;24.03;76.44
10310;BME280;5200;43.236;27.986;2023-06-19T07:46:33;99756.72;;;24.15;75.12
10310;BME280;5200;43.236;27.986;2023-06-19T07:49:00;99737.69;;;24.16;74.89
10310;BME280;5200;43.236;27.986;2023-06-19T07:51:26;99771.13;;;24.44;74.11
10310;BME280;5200;43.236;27.986;2023-06-19T07:53:53;99760.59;;;24.54;73.09
10310;BME280;5200;43.236;27.986;2023-06-19T07:56:20;99785.28;;;24.51;73.13
10310;BME280;5200;43.236;27.986;2023-06-19T07:58:48;99742.34;;;24.44;72.54
10310;BME280;5200;43.236;27.986;2023-06-19T08:01:15;99745.38;;;24.60;72.45
10310;BME280;5200;43.236;27.986;2023-06-19T08:03:42;99751.94;;;24.64;71.37
10310;BME280;5200;43.236;27.986;2023-06-19T08:06:09;99730.44;;;24.64;71.58
10310;BME280;5200;43.236;27.986;2023-06-19T08:08:36;99751.22;;;24.68;70.62
10310;BME280;5200;43.236;27.986;2023-06-19T08:11:03;99753.47;;;24.60;71.57
10310;BME280;5200;43.236;27.986;2023-06-19T08:13:29;99742.25;;;24.63;71.20
10310;BME280;5200;43.236;27.986;2023-06-19T08:15:58;99751.69;;;24.77;70.81
10310;BME280;5200;43.236;27.986;2023-06-19T08:18:24;99734.97;;;24.75;70.62
10310;BME280;5200;43.236;27.986;2023-06-19T08:20:51;99720.34;;;24.71;70.18
10310;BME280;5200;43.236;27.986;2023-06-19T08:23:19;99741.13;;;24.87;70.06
10310;BME280;5200;43.236;27.986;2023-06-19T08:25:46;99736.56;;;24.88;70.32
10310;BME280;5200;43.236;27.986;2023-06-19T08:28:13;99747.16;;;25.06;71.45
10310;BME280;5200;43.236;27.986;2023-06-19T08:30:40;99766.66;;;25.25;74.96
10310;BME280;5200;43.236;27.986;2023-06-19T08:33:08;99772.06;;;25.25;75.72
10310;BME280;5200;43.236;27.986;2023-06-19T08:35:35;99769.28;;;25.20;76.47
10310;BME280;5200;43.236;27.986;2023-06-19T08:38:02;99777.84;;;25.05;76.84
10310;BME280;5200;43.236;27.986;2023-06-19T08:40:29;99793.22;;;24.81;77.57
10310;BME280;5200;43.236;27.986;2023-06-19T08:42:56;99784.69;;;24.61;78.22
10310;BME280;5200;43.236;27.986;2023-06-19T08:45:22;99777.19;;;24.39;79.40
10310;BME280;5200;43.236;27.986;2023-06-19T08:47:49;99791.38;;;24.46;79.67
10310;BME280;5200;43.236;27.986;2023-06-19T08:50:19;99774.94;;;24.24;79.27
10310;BME280;5200;43.236;27.986;2023-06-19T08:52:46;99807.69;;;24.33;80.00
10310;BME280;5200;43.236;27.986;2023-06-19T08:55:13;99808.06;;;24.37;78.41
10310;BME280;5200;43.236;27.986;2023-06-19T08:57:40;99805.41;;;24.49;79.53
10310;BME280;5200;43.236;27.986;2023-06-19T09:00:07;99807.72;;;24.57;77.36
10310;BME280;5200;43.236;27.986;2023-06-19T09:02:42;99807.91;;;24.43;75.35
10310;BME280;5200;43.236;27.986;2023-06-19T09:05:12;99787.34;;;24.14;76.58
10310;BME280;5200;43.236;27.986;2023-06-19T09:07:40;99814.34;;;24.31;76.00
10310;BME280;5200;43.236;27.986;2023-06-19T09:10:15;99814.47;;;24.24;75.37
10310;BME280;5200;43.236;27.986;2023-06-19T09:12:43;99823.59;;;24.23;75.67
10310;BME280;5200;43.236;27.986;2023-06-19T09:15:14;99808.25;;;24.12;72.26
10310;BME280;5200;43.236;27.986;2023-06-19T09:17:41;99819.63;;;24.37;70.91
10310;BME280;5200;43.236;27.986;2023-06-19T09:20:08;99799.28;;;24.18;72.59
10310;BME280;5200;43.236;27.986;2023-06-19T09:22:37;99823.50;;;24.41;69.61
10310;BME280;5200;43.236;27.986;2023-06-19T09:25:06;99796.59;;;24.18;68.55
10310;BME280;5200;43.236;27.986;2023-06-19T09:27:35;99821.34;;;24.20;69.82
10310;BME280;5200;43.236;27.986;2023-06-19T09:30:05;99821.00;;;24.16;70.76
10310;BME280;5200;43.236;27.986;2023-06-19T09:32:33;99813.66;;;24.23;71.12
10310;BME280;5200;43.236;27.986;2023-06-19T09:35:01;99824.28;;;24.30;70.49
10310;BME280;5200;43.236;27.986;2023-06-19T09:37:30;99814.84;;;24.27;70.35
10310;BME280;5200;43.236;27.986;2023-06-19T09:39:58;99822.91;;;24.39;71.34
10310;BME280;5200;43.236;27.986;2023-06-19T09:42:30;99821.94;;;24.45;72.01
10310;BME280;5200;43.236;27.986;2023-06-19T09:44:59;99807.69;;;24.45;71.34
10310;BME280;5200;43.236;27.986;2023-06-19T09:47:30;99828.72;;;24.36;69.65
10310;BME280;5200;43.236;27.986;2023-06-19T09:49:57;99824.78;;;24.27;70.95
10310;BME280;5200;43.236;27.986;2023-06-19T09:52:24;99829.78;;;24.23;70.74
10310;BME280;5200;43.236;27.986;2023-06-19T09:54:52;99834.06;;;24.13;69.77
10310;BME280;5200;43.236;27.986;2023-06-19T09:57:19;99817.88;;;23.89;71.10
10310;BME280;5200;43.236;27.986;2023-06-19T09:59:51;99841.00;;;23.78;70.61
10310;BME280;5200;43.236;27.986;2023-06-19T10:02:19;99855.31;;;23.72;71.00
10310;BME280;5200;43.236;27.986;2023-06-19T10:04:52;99838.69;;;23.63;70.98
10310;BME280;5200;43.236;27.986;2023-06-19T10:07:22;99845.47;;;23.66;71.90
10310;BME280;5200;43.236;27.986;2023-06-19T10:10:00;99849.56;;;23.69;72.72
10310;BME280;5200;43.236;27.986;2023-06-19T10:12:37;99835.25;;;23.75;73.39
10310;BME280;5200;43.236;27.986;2023-06-19T10:15:16;99847.47;;;24.01;72.86
10310;BME280;5200;43.236;27.986;2023-06-19T10:17:45;99850.19;;;24.13;72.66
10310;BME280;5200;43.236;27.986;2023-06-19T10:20:23;99838.31;;;24.32;71.43
10310;BME280;5200;43.236;27.986;2023-06-19T10:22:57;99844.31;;;24.46;70.76
10310;BME280;5200;43.236;27.986;2023-06-19T10:25:26;99830.19;;;24.51;71.67
10310;BME280;5200;43.236;27.986;2023-06-19T10:27:53;99834.41;;;24.70;71.58
10310;BME280;5200;43.236;27.986;2023-06-19T10:30:22;99840.34;;;24.84;71.22
10310;BME280;5200;43.236;27.986;2023-06-19T10:32:48;99839.75;;;24.94;72.32
10310;BME280;5200;43.236;27.986;2023-06-19T10:35:17;99847.06;;;25.34;73.96
10310;BME280;5200;43.236;27.986;2023-06-19T10:37:46;99844.63;;;25.61;73.10
10310;BME280;5200;43.236;27.986;2023-06-19T10:40:14;99844.03;;;25.70;69.39
10310;BME280;5200;43.236;27.986;2023-06-19T10:42:41;99837.78;;;25.70;68.91
10310;BME280;5200;43.236;27.986;2023-06-19T10:45:09;99846.59;;;25.65;69.37
10310;BME280;5200;43.236;27.986;2023-06-19T10:47:39;99840.94;;;25.50;68.27
10310;BME280;5200;43.236;27.986;2023-06-19T10:50:10;99824.19;;;25.48;66.95
10310;BME280;5200;43.236;27.986;2023-06-19T10:52:40;99824.19;;;25.48;64.99
10310;BME280;5200;43.236;27.986;2023-06-19T10:55:08;99836.47;;;25.56;64.74
10310;BME280;5200;43.236;27.986;2023-06-19T10:57:36;99832.09;;;25.66;64.53
10310;BME280;5200;43.236;27.986;2023-06-19T11:00:04;99833.44;;;25.81;64.99
10310;BME280;5200;43.236;27.986;2023-06-19T11:02:36;99834.47;;;26.08;65.15
10310;BME280;5200;43.236;27.986;2023-06-19T11:05:06;99822.38;;;26.28;65.22
10310;BME280;5200;43.236;27.986;2023-06-19T11:07:33;99821.00;;;26.42;65.33
10310;BME280;5200;43.236;27.986;2023-06-19T11:10:00;99816.81;;;26.68;65.41
10310;BME280;5200;43.236;27.986;2023-06-19T11:12:27;99828.19;;;26.92;63.08
10310;BME280;5200;43.236;27.986;2023-06-19T11:14:54;99818.53;;;26.96;59.99
10310;BME280;5200;43.236;27.986;2023-06-19T11:17:22;99812.16;;;27.03;58.55
10310;BME280;5200;43.236;27.986;2023-06-19T11:19:49;99809.19;;;26.82;60.93
10310;BME280;5200;43.236;27.986;2023-06-19T11:22:17;99807.19;;;26.55;62.08
10310;BME280;5200;43.236;27.986;2023-06-19T11:24:44;99806.41;;;26.77;62.52
10310;BME280;5200;43.236;27.986;2023-06-19T11:27:18;99805.78;;;26.92;58.12
10310;BME280;5200;43.236;27.986;2023-06-19T11:29:45;99793.16;;;26.75;55.70
10310;BME280;5200;43.236;27.986;2023-06-19T11:32:14;99826.00;;;26.89;56.95
10310;BME280;5200;43.236;27.986;2023-06-19T11:34:41;99811.25;;;26.75;56.26
10310;BME280;5200;43.236;27.986;2023-06-19T11:37:13;99807.66;;;26.69;56.43
10310;BME280;5200;43.236;27.986;2023-06-19T11:39:42;99810.94;;;26.54;56.51
10310;BME280;5200;43.236;27.986;2023-06-19T11:42:10;99800.00;;;26.27;54.76
10310;BME280;5200;43.236;27.986;2023-06-19T11:44:55;99806.38;;;26.21;55.94
10310;BME280;5200;43.236;27.986;2023-06-19T11:47:22;99803.00;;;26.31;55.15
10310;BME280;5200;43.236;27.986;2023-06-19T11:49:49;99814.53;;;26.26;55.12
10310;BME280;5200;43.236;27.986;2023-06-19T11:52:16;99814.31;;;26.11;56.75
10310;BME280;5200;43.236;27.986;2023-06-19T11:54:44;99814.63;;;26.14;56.47
10310;BME280;5200;43.236;27.986;2023-06-19T11:57:12;99817.06;;;26.16;56.71
10310;BME280;5200;43.236;27.986;2023-06-19T11:59:39;99810.75;;;26.10;57.48
10310;BME280;5200;43.236;27.986;2023-06-19T12:02:06;99803.19;;;26.07;56.71
10310;BME280;5200;43.236;27.986;2023-06-19T12:04:32;99809.16;;;26.09;58.21
10310;BME280;5200;43.236;27.986;2023-06-19T12:07:00;99802.13;;;26.25;58.36
10310;BME280;5200;43.236;27.986;2023-06-19T12:09:29;99801.31;;;26.25;58.71
10310;BME280;5200;43.236;27.986;2023-06-19T12:11:58;99803.03;;;26.14;58.10
10310;BME280;5200;43.236;27.986;2023-06-19T12:14:25;99799.31;;;26.03;56.33
10310;BME280;5200;43.236;27.986;2023-06-19T12:16:52;99804.91;;;26.13;56.33
10310;BME280;5200;43.236;27.986;2023-06-19T12:19:19;99802.88;;;26.21;56.80
10310;BME280;5200;43.236;27.986;2023-06-19T12:21:46;99788.47;;;26.32;56.68
10310;BME280;5200;43.236;27.986;2023-06-19T12:24:13;99793.94;;;26.54;56.35
10310;BME280;5200;43.236;27.986;2023-06-19T12:26:40;99795.41;;;26.62;56.39
10310;BME280;5200;43.236;27.986;2023-06-19T12:29:08;99807.44;;;26.54;57.38
10310;BME280;5200;43.236;27.986;2023-06-19T12:31:35;99796.06;;;26.35;57.33
10310;BME280;5200;43.236;27.986;2023-06-19T12:34:02;99786.19;;;26.58;55.02
10310;BME280;5200;43.236;27.986;2023-06-19T12:36:29;99787.34;;;26.84;51.13
10310;BME280;5200;43.236;27.986;2023-06-19T12:38:59;99775.91;;;26.98;49.29
10310;BME280;5200;43.236;27.986;2023-06-19T12:41:27;99768.06;;;27.19;49.74
10310;BME280;5200;43.236;27.986;2023-06-19T12:43:54;99762.28;;;27.32;51.12
10310;BME280;5200;43.236;27.986;2023-06-19T12:46:22;99741.81;;;27.36;51.49
10310;BME280;5200;43.236;27.986;2023-06-19T12:48:49;99770.72;;;27.36;51.71
10310;BME280;5200;43.236;27.986;2023-06-19T12:51:17;99779.88;;;27.13;51.56
10310;BME280;5200;43.236;27.986;2023-06-19T12:53:44;99769.66;;;26.93;52.54
10310;BME280;5200;43.236;27.986;2023-06-19T12:56:11;99776.66;;;26.72;55.04
10310;BME280;5200;43.236;27.986;2023-06-19T12:58:37;99773.75;;;26.56;55.96